sensor_id;sensor_type;location;lat;lon;timestamp;pressure;altitude;pressure_sealevel;temperature;humidity
10606;BME280;5350;42.698;23.148;2023-05-02T00:02:18;93949.63;;;9.34;100.00
10606;BME280;5350;42.698;23.148;2023-05-02T00:04:45;93949.03;;;9.42;100.00
10606;BME280;5350;42.698;23.148;2023-05-02T00:07:11;93948.44;;;9.50;100.00
10606;BME280;5350;42.698;23.148;2023-05-02T00:09:38;93944.53;;;9.04;100.00
10606;BME280;5350;42.698;23.148;2023-05-02T00:12:05;93947.59;;;9.16;100.00
10606;BME280;5350;42.698;23.148;2023-05-02T00:14:32;93960.72;;;9.21;100.00
10606;BME280;5350;42.698;23.148;2023-05-02T00:16:58;93949.19;;;9.22;100.00
10606;BME280;5350;42.698;23.148;2023-05-02T00:19:26;93956.56;;;9.10;100.00
10606;BME280;5350;42.698;23.148;2023-05-02T00:21:53;93957.66;;;9.04;100.00
10606;BME280;5350;42.698;23.148;2023-05-02T00:24:20;93970.72;;;9.14;100.00
10606;BME280;5350;42.698;23.148;2023-05-02T00:26:46;93962.34;;;9.12;100.00
10606;BME280;5350;42.698;23.148;2023-05-02T00:29:14;93969.66;;;9.20;100.00
10606;BME280;5350;42.698;23.148;2023-05-02T00:31:40;93963.31;;;9.26;100.00
10606;BME280;5350;42.698;23.148;2023-05-02T00:34:07;93959.91;;;9.25;100.00
10606;BME280;5350;42.698;23.148;2023-05-02T00:36:35;93967.53;;;9.22;100.00
10606;BME280;5350;42.698;23.148;2023-05-02T00:39:02;93970.63;;;9.34;100.00
10606;BME280;5350;42.698;23.148;2023-05-02T00:41:29;93974.25;;;9.38;100.00
10606;BME280;5350;42.698;23.148;2023-05-02T00:43:57;93972.22;;;9.30;100.00
10606;BME280;5350;42.698;23.148;2023-05-02T00:46:23;93970.06;;;9.37;100.00
10606;BME280;5350;42.698;23.148;2023-05-02T00:48:51;93974.19;;;9.48;100.00
10606;BME280;5350;42.698;23.148;2023-05-02T00:51:18;93965.38;;;9.29;100.00
10606;BME280;5350;42.698;23.148;2023-05-02T00:53:46;93974.59;;;9.26;100.00
10606;BME280;5350;42.698;23.148;2023-05-02T00:56:13;93976.97;;;9.23;100.00
10606;BME280;5350;42.698;23.148;2023-05-02T00:58:40;93975.97;;;9.14;100.00
10606;BME280;5350;42.698;23.148;2023-05-02T01:01:13;93963.25;;;8.92;100.00
10606;BME280;5350;42.698;23.148;2023-05-02T01:03:50;93964.22;;;9.01;100.00
10606;BME280;5350;42.698;23.148;2023-05-02T01:06:32;93958.88;;;9.21;100.00
10606;BME280;5350;42.698;23.148;2023-05-02T01:09:13;93956.56;;;9.10;100.00
10606;BME280;5350;42.698;23.148;2023-05-02T01:11:47;93970.53;;;9.05;100.00
10606;BME280;5350;42.698;23.148;2023-05-02T01:14:18;93965.22;;;9.10;100.00
10606;BME280;5350;42.698;23.148;2023-05-02T01:16:47;93954.53;;;9.02;100.00
10606;BME280;5350;42.698;23.148;2023-05-02T01:19:23;93963.69;;;9.04;100.00
10606;BME280;5350;42.698;23.148;2023-05-02T01:21:51;93971.38;;;8.91;100.00
10606;BME280;5350;42.698;23.148;2023-05-02T01:24:25;93966.34;;;8.99;100.00
10606;BME280;5350;42.698;23.148;2023-05-02T01:27:00;93960.72;;;8.67;100.00
10606;BME280;5350;42.698;23.148;2023-05-02T01:29:35;93962.63;;;8.46;100.00
10606;BME280;5350;42.698;23.148;2023-05-02T01:32:03;93963.94;;;8.49;100.00
10606;BME280;5350;42.698;23.148;2023-05-02T01:34:32;93954.22;;;8.59;100.00
10606;BME280;5350;42.698;23.148;2023-05-02T01:37:00;93961.00;;;8.60;100.00
10606;BME280;5350;42.698;23.148;2023-05-02T01:39:29;93968.13;;;8.50;100.00
10606;BME280;5350;42.698;23.148;2023-05-02T01:41:57;93969.22;;;8.29;100.00
10606;BME280;5350;42.698;23.148;2023-05-02T01:44:26;93965.25;;;8.46;100.00
10606;BME280;5350;42.698;23.148;2023-05-02T01:46:56;93950.53;;;8.60;100.00
10606;BME280;5350;42.698;23.148;2023-05-02T01:49:24;93952.13;;;8.51;100.00
10606;BME280;5350;42.698;23.148;2023-05-02T01:51:52;93952.91;;;8.52;100.00
10606;BME280;5350;42.698;23.148;2023-05-02T01:54:20;93956.28;;;8.67;100.00
10606;BME280;5350;42.698;23.148;2023-05-02T01:56:48;93957.16;;;8.38;100.00
10606;BME280;5350;42.698;23.148;2023-05-02T01:59:18;93964.47;;;8.46;100.00
10606;BME280;5350;42.698;23.148;2023-05-02T02:01:45;93959.22;;;8.46;100.00
10606;BME280;5350;42.698;23.148;2023-05-02T02:04:15;93966.81;;;8.52;100.00
10606;BME280;5350;42.698;23.148;2023-05-02T02:06:47;93957.34;;;8.56;100.00
10606;BME280;5350;42.698;23.148;2023-05-02T02:09:16;93962.56;;;8.66;100.00
10606;BME280;5350;42.698;23.148;2023-05-02T02:11:46;93960.97;;;8.70;100.00
10606;BME280;5350;42.698;23.148;2023-05-02T02:14:20;93959.94;;;8.66;100.00
10606;BME280;5350;42.698;23.148;2023-05-02T02:16:48;93962.84;;;8.65;100.00
10606;BME280;5350;42.698;23.148;2023-05-02T02:19:18;93951.03;;;8.57;100.00
10606;BME280;5350;42.698;23.148;2023-05-02T02:21:47;93962.03;;;8.64;100.00
10606;BME280;5350;42.698;23.148;2023-05-02T02:24:15;93964.97;;;8.53;100.00
10606;BME280;5350;42.698;23.148;2023-05-02T02:26:43;93957.63;;;8.50;100.00
10606;BME280;5350;42.698;23.148;2023-05-02T02:29:10;93970.75;;;8.50;100.00
10606;BME280;5350;42.698;23.148;2023-05-02T02:31:37;93961.31;;;8.49;100.00
10606;BME280;5350;42.698;23.148;2023-05-02T02:34:04;93965.75;;;8.53;100.00
10606;BME280;5350;42.698;23.148;2023-05-02T02:36:39;93971.28;;;8.37;100.00
10606;BME280;5350;42.698;23.148;2023-05-02T02:39:14;93971.03;;;8.48;100.00
10606;BME280;5350;42.698;23.148;2023-05-02T02:41:49;93970.53;;;8.31;100.00
10606;BME280;5350;42.698;23.148;2023-05-02T02:44:27;93968.69;;;8.42;100.00
10606;BME280;5350;42.698;23.148;2023-05-02T02:47:02;93977.56;;;8.51;100.00
10606;BME280;5350;42.698;23.148;2023-05-02T02:49:40;93973.91;;;8.47;100.00
10606;BME280;5350;42.698;23.148;2023-05-02T02:52:17;93981.53;;;8.18;100.00
10606;BME280;5350;42.698;23.148;2023-05-02T02:54:51;93980.00;;;8.02;100.00
10606;BME280;5350;42.698;23.148;2023-05-02T02:57:26;93984.97;;;8.08;100.00
10606;BME280;5350;42.698;23.148;2023-05-02T03:00:00;93982.06;;;8.10;100.00
10606;BME280;5350;42.698;23.148;2023-05-02T03:02:31;93984.44;;;8.27;100.00
10606;BME280;5350;42.698;23.148;2023-05-02T03:04:59;93950.94;;;7.98;100.00
10606;BME280;5350;42.698;23.148;2023-05-02T03:07:28;93995.19;;;8.15;100.00
10606;BME280;5350;42.698;23.148;2023-05-02T03:09:56;94000.66;;;8.14;100.00
10606;BME280;5350;42.698;23.148;2023-05-02T03:12:22;93977.63;;;8.11;100.00
10606;BME280;5350;42.698;23.148;2023-05-02T03:14:49;93999.34;;;8.16;100.00
10606;BME280;5350;42.698;23.148;2023-05-02T03:17:16;93997.81;;;8.25;100.00
10606;BME280;5350;42.698;23.148;2023-05-02T03:19:43;93994.13;;;8.31;100.00
10606;BME280;5350;42.698;23.148;2023-05-02T03:22:09;94002.50;;;8.33;100.00
10606;BME280;5350;42.698;23.148;2023-05-02T03:24:38;93995.19;;;8.25;100.00
10606;BME280;5350;42.698;23.148;2023-05-02T03:27:04;93995.66;;;8.22;100.00
10606;BME280;5350;42.698;23.148;2023-05-02T03:29:31;94005.41;;;8.22;100.00
10606;BME280;5350;42.698;23.148;2023-05-02T03:31:58;94004.34;;;8.38;100.00
10606;BME280;5350;42.698;23.148;2023-05-02T03:34:24;94004.38;;;8.28;100.00
10606;BME280;5350;42.698;23.148;2023-05-02T03:36:51;94004.34;;;8.18;100.00
10606;BME280;5350;42.698;23.148;2023-05-02T03:39:18;94000.16;;;8.17;100.00
10606;BME280;5350;42.698;23.148;2023-05-02T03:41:46;93999.88;;;8.28;100.00
10606;BME280;5350;42.698;23.148;2023-05-02T03:44:12;94011.44;;;8.32;100.00
10606;BME280;5350;42.698;23.148;2023-05-02T03:46:39;93996.75;;;8.01;100.00
10606;BME280;5350;42.698;23.148;2023-05-02T03:49:06;94008.78;;;8.22;100.00
10606;BME280;5350;42.698;23.148;2023-05-02T03:51:33;94007.22;;;8.16;100.00
10606;BME280;5350;42.698;23.148;2023-05-02T03:54:00;94012.97;;;8.23;100.00
10606;BME280;5350;42.698;23.148;2023-05-02T03:56:27;94011.69;;;8.36;100.00
10606;BME280;5350;42.698;23.148;2023-05-02T03:58:55;94014.56;;;8.34;100.00
10606;BME280;5350;42.698;23.148;2023-05-02T04:01:22;94011.94;;;8.39;100.00
10606;BME280;5350;42.698;23.148;2023-05-02T04:03:50;94013.00;;;8.38;100.00
10606;BME280;5350;42.698;23.148;2023-05-02T04:06:17;94022.34;;;8.64;100.00
10606;BME280;5350;42.698;23.148;2023-05-02T04:08:44;94024.47;;;8.67;100.00
10606;BME280;5350;42.698;23.148;2023-05-02T04:11:11;94018.94;;;8.69;100.00
10606;BME280;5350;42.698;23.148;2023-05-02T04:13:37;94016.56;;;8.77;100.00
10606;BME280;5350;42.698;23.148;2023-05-02T04:16:06;94021.22;;;8.91;100.00
10606;BME280;5350;42.698;23.148;2023-05-02T04:18:32;94014.63;;;8.98;100.00
10606;BME280;5350;42.698;23.148;2023-05-02T04:20:59;94016.94;;;9.10;100.00
10606;BME280;5350;42.698;23.148;2023-05-02T04:23:26;94017.41;;;9.22;100.00
10606;BME280;5350;42.698;23.148;2023-05-02T04:25:53;94021.53;;;9.33;100.00
10606;BME280;5350;42.698;23.148;2023-05-02T04:28:20;94031.44;;;9.46;100.00
10606;BME280;5350;42.698;23.148;2023-05-02T04:30:48;94027.94;;;9.60;100.00
10606;BME280;5350;42.698;23.148;2023-05-02T04:33:17;94029.75;;;9.65;100.00
10606;BME280;5350;42.698;23.148;2023-05-02T04:35:44;94029.19;;;9.68;100.00
10606;BME280;5350;42.698;23.148;2023-05-02T04:38:11;94035.72;;;9.76;100.00
10606;BME280;5350;42.698;23.148;2023-05-02T04:40:38;94038.28;;;9.86;100.00
10606;BME280;5350;42.698;23.148;2023-05-02T04:43:05;94037.16;;;9.97;100.00
10606;BME280;5350;42.698;23.148;2023-05-02T04:45:34;94036.84;;;10.03;100.00
10606;BME280;5350;42.698;23.148;2023-05-02T04:48:01;94034.91;;;10.19;100.00
10606;BME280;5350;42.698;23.148;2023-05-02T04:50:29;94035.28;;;10.36;100.00
10606;BME280;5350;42.698;23.148;2023-05-02T04:52:56;94030.72;;;10.47;100.00
10606;BME280;5350;42.698;23.148;2023-05-02T04:55:23;94033.28;;;10.52;100.00
10606;BME280;5350;42.698;23.148;2023-05-02T04:57:50;94040.72;;;10.68;100.00
10606;BME280;5350;42.698;23.148;2023-05-02T05:00:17;94043.53;;;10.77;100.00
10606;BME280;5350;42.698;23.148;2023-05-02T05:02:43;94038.78;;;10.79;100.00
10606;BME280;5350;42.698;23.148;2023-05-02T05:05:10;94035.88;;;10.80;100.00
10606;BME280;5350;42.698;23.148;2023-05-02T05:07:38;94032.91;;;10.87;100.00
10606;BME280;5350;42.698;23.148;2023-05-02T05:10:06;94032.84;;;10.92;100.00
10606;BME280;5350;42.698;23.148;2023-05-02T05:12:35;94039.59;;;11.03;100.00
10606;BME280;5350;42.698;23.148;2023-05-02T05:15:02;94043.63;;;11.14;100.00
10606;BME280;5350;42.698;23.148;2023-05-02T05:17:29;94035.41;;;11.20;100.00
10606;BME280;5350;42.698;23.148;2023-05-02T05:19:56;94034.50;;;11.30;100.00
10606;BME280;5350;42.698;23.148;2023-05-02T05:22:22;94041.78;;;11.38;100.00
10606;BME280;5350;42.698;23.148;2023-05-02T05:24:54;94041.63;;;11.48;100.00
10606;BME280;5350;42.698;23.148;2023-05-02T05:27:20;94046.25;;;11.56;100.00
10606;BME280;5350;42.698;23.148;2023-05-02T05:29:47;94048.91;;;11.56;100.00
10606;BME280;5350;42.698;23.148;2023-05-02T05:32:14;94050.06;;;11.69;100.00
10606;BME280;5350;42.698;23.148;2023-05-02T05:34:41;94054.94;;;11.80;100.00
10606;BME280;5350;42.698;23.148;2023-05-02T05:37:07;94027.28;;;11.59;100.00
10606;BME280;5350;42.698;23.148;2023-05-02T05:39:34;94052.94;;;11.91;100.00
10606;BME280;5350;42.698;23.148;2023-05-02T05:42:02;94053.78;;;12.05;100.00
10606;BME280;5350;42.698;23.148;2023-05-02T05:44:30;94057.72;;;12.21;100.00
10606;BME280;5350;42.698;23.148;2023-05-02T05:46:57;94057.06;;;12.29;100.00
10606;BME280;5350;42.698;23.148;2023-05-02T05:49:23;94064.06;;;12.39;100.00
10606;BME280;5350;42.698;23.148;2023-05-02T05:51:50;94062.22;;;12.53;100.00
10606;BME280;5350;42.698;23.148;2023-05-02T05:54:17;94066.16;;;12.69;100.00
10606;BME280;5350;42.698;23.148;2023-05-02T05:56:44;94067.44;;;12.85;100.00
10606;BME280;5350;42.698;23.148;2023-05-02T05:59:12;94069.03;;;13.00;100.00
10606;BME280;5350;42.698;23.148;2023-05-02T06:01:39;94075.72;;;12.97;100.00
10606;BME280;5350;42.698;23.148;2023-05-02T06:04:06;94068.34;;;12.94;100.00
10606;BME280;5350;42.698;23.148;2023-05-02T06:06:33;94071.06;;;13.08;100.00
10606;BME280;5350;42.698;23.148;2023-05-02T06:09:00;94071.84;;;13.22;100.00
10606;BME280;5350;42.698;23.148;2023-05-02T06:11:27;94067.63;;;13.34;96.88
10606;BME280;5350;42.698;23.148;2023-05-02T06:13:54;94064.47;;;13.46;96.12
10606;BME280;5350;42.698;23.148;2023-05-02T06:16:22;94068.56;;;13.66;95.53
10606;BME280;5350;42.698;23.148;2023-05-02T06:18:49;94070.59;;;13.82;94.24
10606;BME280;5350;42.698;23.148;2023-05-02T06:21:17;94064.75;;;13.94;94.06
10606;BME280;5350;42.698;23.148;2023-05-02T06:23:43;94052.69;;;14.01;91.96
10606;BME280;5350;42.698;23.148;2023-05-02T06:26:10;94064.44;;;14.31;90.65
10606;BME280;5350;42.698;23.148;2023-05-02T06:28:37;94072.16;;;14.41;88.60
10606;BME280;5350;42.698;23.148;2023-05-02T06:31:04;94065.00;;;14.41;87.98
10606;BME280;5350;42.698;23.148;2023-05-02T06:33:33;94077.28;;;14.60;86.59
10606;BME280;5350;42.698;23.148;2023-05-02T06:36:00;94081.53;;;14.69;83.92
10606;BME280;5350;42.698;23.148;2023-05-02T06:38:26;94070.34;;;14.72;83.96
10606;BME280;5350;42.698;23.148;2023-05-02T06:40:53;94071.78;;;14.78;82.96
10606;BME280;5350;42.698;23.148;2023-05-02T06:43:20;94076.50;;;14.90;82.42
10606;BME280;5350;42.698;23.148;2023-05-02T06:45:46;94072.81;;;14.99;81.84
10606;BME280;5350;42.698;23.148;2023-05-02T06:48:13;94068.19;;;15.13;79.17
10606;BME280;5350;42.698;23.148;2023-05-02T06:50:41;94071.22;;;15.29;76.46
10606;BME280;5350;42.698;23.148;2023-05-02T06:53:08;94069.34;;;15.30;79.39
10606;BME280;5350;42.698;23.148;2023-05-02T06:55:35;94069.06;;;15.40;78.94
10606;BME280;5350;42.698;23.148;2023-05-02T06:58:02;94064.72;;;15.44;78.14
10606;BME280;5350;42.698;23.148;2023-05-02T07:00:29;94057.28;;;15.46;76.44
10606;BME280;5350;42.698;23.148;2023-05-02T07:02:55;94062.28;;;15.56;76.90
10606;BME280;5350;42.698;23.148;2023-05-02T07:05:22;94061.34;;;15.69;77.36
10606;BME280;5350;42.698;23.148;2023-05-02T07:07:50;94068.44;;;15.90;75.40
10606;BME280;5350;42.698;23.148;2023-05-02T07:10:17;94074.81;;;15.98;72.75
10606;BME280;5350;42.698;23.148;2023-05-02T07:12:43;94072.34;;;16.10;71.50
10606;BME280;5350;42.698;23.148;2023-05-02T07:15:10;94076.56;;;16.28;67.85
10606;BME280;5350;42.698;23.148;2023-05-02T07:17:38;94076.41;;;16.33;69.76
10606;BME280;5350;42.698;23.148;2023-05-02T07:20:06;94082.66;;;16.37;69.97
10606;BME280;5350;42.698;23.148;2023-05-02T07:22:33;94081.72;;;16.50;68.11
10606;BME280;5350;42.698;23.148;2023-05-02T07:25:01;94077.78;;;16.65;70.65
10606;BME280;5350;42.698;23.148;2023-05-02T07:27:28;94081.38;;;16.77;66.05
10606;BME280;5350;42.698;23.148;2023-05-02T07:29:55;94082.94;;;16.78;63.84
10606;BME280;5350;42.698;23.148;2023-05-02T07:32:21;94084.34;;;16.85;66.80
10606;BME280;5350;42.698;23.148;2023-05-02T07:34:48;94077.44;;;16.92;64.48
10606;BME280;5350;42.698;23.148;2023-05-02T07:37:18;94086.47;;;17.08;62.87
10606;BME280;5350;42.698;23.148;2023-05-02T07:39:45;94085.19;;;17.14;63.61
10606;BME280;5350;42.698;23.148;2023-05-02T07:42:13;94092.22;;;17.19;61.76
10606;BME280;5350;42.698;23.148;2023-05-02T07:44:39;94084.06;;;17.24;65.40
10606;BME280;5350;42.698;23.148;2023-05-02T07:47:07;94090.75;;;17.30;62.19
10606;BME280;5350;42.698;23.148;2023-05-02T07:49:34;94081.78;;;17.43;59.37
10606;BME280;5350;42.698;23.148;2023-05-02T07:52:01;94084.56;;;17.55;60.41
10606;BME280;5350;42.698;23.148;2023-05-02T07:54:27;94080.91;;;17.68;60.60
10606;BME280;5350;42.698;23.148;2023-05-02T07:56:54;94081.81;;;17.72;56.39
10606;BME280;5350;42.698;23.148;2023-05-02T07:59:24;94077.81;;;17.87;57.00
10606;BME280;5350;42.698;23.148;2023-05-02T08:01:52;94081.78;;;17.81;55.31
10606;BME280;5350;42.698;23.148;2023-05-02T08:04:18;94077.78;;;17.95;55.66
10606;BME280;5350;42.698;23.148;2023-05-02T08:06:45;94078.97;;;18.06;55.29
10606;BME280;5350;42.698;23.148;2023-05-02T08:09:12;94065.66;;;18.06;53.70
10606;BME280;5350;42.698;23.148;2023-05-02T08:11:38;94075.47;;;18.14;53.91
10606;BME280;5350;42.698;23.148;2023-05-02T08:14:05;94071.44;;;18.29;53.20
10606;BME280;5350;42.698;23.148;2023-05-02T08:16:33;94078.97;;;18.48;53.20
10606;BME280;5350;42.698;23.148;2023-05-02T08:19:00;94087.44;;;18.50;54.68
10606;BME280;5350;42.698;23.148;2023-05-02T08:21:26;94077.84;;;18.49;51.02
10606;BME280;5350;42.698;23.148;2023-05-02T08:23:57;94070.13;;;18.56;52.58
10606;BME280;5350;42.698;23.148;2023-05-02T08:26:24;94071.31;;;18.79;52.54
10606;BME280;5350;42.698;23.148;2023-05-02T08:28:51;94068.50;;;18.96;52.07
10606;BME280;5350;42.698;23.148;2023-05-02T08:31:18;94066.84;;;19.28;50.53
10606;BME280;5350;42.698;23.148;2023-05-02T08:33:46;94063.03;;;19.37;50.38
10606;BME280;5350;42.698;23.148;2023-05-02T08:36:14;94061.81;;;19.71;51.76
10606;BME280;5350;42.698;23.148;2023-05-02T08:38:41;94060.78;;;19.87;49.04
10606;BME280;5350;42.698;23.148;2023-05-02T08:41:11;94059.19;;;20.11;47.89
10606;BME280;5350;42.698;23.148;2023-05-02T08:43:38;94052.28;;;20.22;49.27
10606;BME280;5350;42.698;23.148;2023-05-02T08:46:05;94050.91;;;20.40;47.76
10606;BME280;5350;42.698;23.148;2023-05-02T08:48:34;94010.41;;;20.38;46.88
10606;BME280;5350;42.698;23.148;2023-05-02T08:51:03;94038.94;;;20.77;45.85
10606;BME280;5350;42.698;23.148;2023-05-02T08:53:32;94034.38;;;20.93;46.16
10606;BME280;5350;42.698;23.148;2023-05-02T08:55:59;94037.75;;;20.90;47.24
10606;BME280;5350;42.698;23.148;2023-05-02T08:58:26;94041.38;;;20.98;44.02
10606;BME280;5350;42.698;23.148;2023-05-02T09:00:55;94041.75;;;20.96;45.19
10606;BME280;5350;42.698;23.148;2023-05-02T09:03:28;94032.97;;;20.68;44.47
10606;BME280;5350;42.698;23.148;2023-05-02T09:06:04;94036.63;;;20.48;44.93
10606;BME280;5350;42.698;23.148;2023-05-02T09:08:32;94039.63;;;20.46;44.54
10606;BME280;5350;42.698;23.148;2023-05-02T09:10:58;94034.75;;;20.36;44.19
10606;BME280;5350;42.698;23.148;2023-05-02T09:13:33;94036.63;;;20.48;45.25
10606;BME280;5350;42.698;23.148;2023-05-02T09:16:02;94040.53;;;20.38;45.92
10606;BME280;5350;42.698;23.148;2023-05-02T09:18:30;94043.56;;;20.37;45.70
10606;BME280;5350;42.698;23.148;2023-05-02T09:20:58;94038.25;;;20.25;44.70
10606;BME280;5350;42.698;23.148;2023-05-02T09:23:34;94028.25;;;20.22;45.66
10606;BME280;5350;42.698;23.148;2023-05-02T09:26:10;94050.91;;;20.28;45.98
10606;BME280;5350;42.698;23.148;2023-05-02T09:28:38;94039.28;;;20.08;44.66
10606;BME280;5350;42.698;23.148;2023-05-02T09:31:06;94041.59;;;20.22;45.86
10606;BME280;5350;42.698;23.148;2023-05-02T09:33:33;94040.25;;;20.16;45.60
10606;BME280;5350;42.698;23.148;2023-05-02T09:36:00;94023.97;;;20.33;46.17
10606;BME280;5350;42.698;23.148;2023-05-02T09:38:27;94026.94;;;20.43;45.98
10606;BME280;5350;42.698;23.148;2023-05-02T09:40:55;94032.81;;;20.49;47.69
10606;BME280;5350;42.698;23.148;2023-05-02T09:43:22;94017.19;;;20.63;46.74
10606;BME280;5350;42.698;23.148;2023-05-02T09:45:55;94024.88;;;20.80;43.62
10606;BME280;5350;42.698;23.148;2023-05-02T09:48:23;94021.72;;;20.90;42.99
10606;BME280;5350;42.698;23.148;2023-05-02T09:50:50;94019.66;;;20.99;45.20
10606;BME280;5350;42.698;23.148;2023-05-02T09:53:16;94019.97;;;21.25;43.10
10606;BME280;5350;42.698;23.148;2023-05-02T09:55:43;94025.38;;;21.44;43.43
10606;BME280;5350;42.698;23.148;2023-05-02T09:58:21;94016.47;;;21.56;42.35
10606;BME280;5350;42.698;23.148;2023-05-02T10:00:49;94012.88;;;21.33;41.96
10606;BME280;5350;42.698;23.148;2023-05-02T10:03:17;94013.47;;;21.26;41.72
10606;BME280;5350;42.698;23.148;2023-05-02T10:05:45;94004.91;;;21.36;42.51
10606;BME280;5350;42.698;23.148;2023-05-02T10:08:13;94007.72;;;21.59;44.34
10606;BME280;5350;42.698;23.148;2023-05-02T10:10:45;94006.47;;;22.03;42.07
10606;BME280;5350;42.698;23.148;2023-05-02T10:13:12;94002.81;;;22.31;39.87
10606;BME280;5350;42.698;23.148;2023-05-02T10:15:44;94008.81;;;22.43;41.02
10606;BME280;5350;42.698;23.148;2023-05-02T10:18:18;93996.25;;;22.47;40.40
10606;BME280;5350;42.698;23.148;2023-05-02T10:20:54;93996.38;;;22.54;39.75
10606;BME280;5350;42.698;23.148;2023-05-02T10:23:25;94003.66;;;22.54;40.13
10606;BME280;5350;42.698;23.148;2023-05-02T10:25:52;93994.97;;;22.79;40.13
10606;BME280;5350;42.698;23.148;2023-05-02T10:28:19;93993.56;;;22.85;37.93
10606;BME280;5350;42.698;23.148;2023-05-02T10:30:48;93995.94;;;22.90;37.42
10606;BME280;5350;42.698;23.148;2023-05-02T10:33:16;93994.44;;;23.16;38.32
10606;BME280;5350;42.698;23.148;2023-05-02T10:35:43;93987.50;;;23.34;38.12
10606;BME280;5350;42.698;23.148;2023-05-02T10:38:11;93979.91;;;23.17;35.95
10606;BME280;5350;42.698;23.148;2023-05-02T10:40:39;93981.03;;;23.16;36.58
10606;BME280;5350;42.698;23.148;2023-05-02T10:43:07;93988.50;;;23.26;35.65
10606;BME280;5350;42.698;23.148;2023-05-02T10:45:34;93980.03;;;23.24;36.71
10606;BME280;5350;42.698;23.148;2023-05-02T10:48:17;93982.03;;;23.08;36.35
10606;BME280;5350;42.698;23.148;2023-05-02T10:50:45;93980.72;;;22.75;36.59
10606;BME280;5350;42.698;23.148;2023-05-02T10:53:37;93976.84;;;22.95;37.37
10606;BME280;5350;42.698;23.148;2023-05-02T10:56:12;93978.84;;;22.98;36.09
10606;BME280;5350;42.698;23.148;2023-05-02T10:58:40;93973.41;;;22.95;35.52
10606;BME280;5350;42.698;23.148;2023-05-02T11:01:31;93966.38;;;23.10;35.33
10606;BME280;5350;42.698;23.148;2023-05-02T11:04:00;93966.78;;;22.89;35.63
10606;BME280;5350;42.698;23.148;2023-05-02T11:06:28;93962.75;;;22.98;33.81
10606;BME280;5350;42.698;23.148;2023-05-02T11:09:29;93967.84;;;23.30;35.83
10606;BME280;5350;42.698;23.148;2023-05-02T11:11:57;93965.22;;;23.56;34.90
10606;BME280;5350;42.698;23.148;2023-05-02T11:14:45;93958.69;;;23.83;34.77
10606;BME280;5350;42.698;23.148;2023-05-02T11:17:15;93952.16;;;24.10;34.24
10606;BME280;5350;42.698;23.148;2023-05-02T11:22:53;93951.63;;;24.31;33.92
10606;BME280;5350;42.698;23.148;2023-05-02T11:25:34;93926.50;;;24.16;32.13
10606;BME280;5350;42.698;23.148;2023-05-02T11:28:04;93953.91;;;24.29;33.02
10606;BME280;5350;42.698;23.148;2023-05-02T11:30:42;93941.53;;;24.21;32.06
10606;BME280;5350;42.698;23.148;2023-05-02T11:33:14;93943.63;;;24.34;31.62
10606;BME280;5350;42.698;23.148;2023-05-02T11:35:42;93928.53;;;24.26;33.10
10606;BME280;5350;42.698;23.148;2023-05-02T11:38:13;93938.25;;;24.71;31.27
10606;BME280;5350;42.698;23.148;2023-05-02T11:40:46;93936.19;;;24.91;31.57
10606;BME280;5350;42.698;23.148;2023-05-02T11:43:16;93932.22;;;25.25;32.57
10606;BME280;5350;42.698;23.148;2023-05-02T11:45:43;93923.16;;;25.47;29.61
10606;BME280;5350;42.698;23.148;2023-05-02T11:48:11;93918.03;;;25.28;29.38
10606;BME280;5350;42.698;23.148;2023-05-02T11:50:42;93919.06;;;25.16;29.99
10606;BME280;5350;42.698;23.148;2023-05-02T11:53:11;93912.50;;;25.10;30.22
10606;BME280;5350;42.698;23.148;2023-05-02T11:55:44;93903.41;;;25.29;30.32
10606;BME280;5350;42.698;23.148;2023-05-02T11:58:15;93914.34;;;25.50;29.86
10606;BME280;5350;42.698;23.148;2023-05-02T12:00:43;93901.34;;;25.59;30.62
10606;BME280;5350;42.698;23.148;2023-05-02T12:03:33;93897.09;;;25.58;30.17
10606;BME280;5350;42.698;23.148;2023-05-02T12:06:08;93891.34;;;25.63;29.64
10606;BME280;5350;42.698;23.148;2023-05-02T12:08:37;93889.31;;;25.46;29.92
10606;BME280;5350;42.698;23.148;2023-05-02T12:11:05;93886.25;;;25.48;30.70
10606;BME280;5350;42.698;23.148;2023-05-02T12:13:32;93883.59;;;25.51;31.53
10606;BME280;5350;42.698;23.148;2023-05-02T12:15:58;93882.81;;;25.54;31.11
10606;BME280;5350;42.698;23.148;2023-05-02T12:18:26;93871.88;;;25.33;30.03
10606;BME280;5350;42.698;23.148;2023-05-02T12:20:54;93882.38;;;25.45;30.50
10606;BME280;5350;42.698;23.148;2023-05-02T12:23:23;93878.22;;;25.58;31.30
10606;BME280;5350;42.698;23.148;2023-05-02T12:25:51;93822.63;;;25.29;31.34
10606;BME280;5350;42.698;23.148;2023-05-02T12:28:19;93872.56;;;25.81;30.98
10606;BME280;5350;42.698;23.148;2023-05-02T12:30:48;93850.69;;;25.96;29.51
10606;BME280;5350;42.698;23.148;2023-05-02T12:33:16;93857.03;;;26.43;31.48
10606;BME280;5350;42.698;23.148;2023-05-02T12:35:43;93854.28;;;26.22;29.24
10606;BME280;5350;42.698;23.148;2023-05-02T12:38:13;93851.09;;;25.98;30.73
10606;BME280;5350;42.698;23.148;2023-05-02T12:40:48;93842.03;;;25.56;30.95
10606;BME280;5350;42.698;23.148;2023-05-02T12:43:16;93829.34;;;25.53;31.33
10606;BME280;5350;42.698;23.148;2023-05-02T12:45:43;93835.91;;;25.59;30.27
10606;BME280;5350;42.698;23.148;2023-05-02T12:48:20;93828.91;;;25.47;29.93
10606;BME280;5350;42.698;23.148;2023-05-02T12:50:47;93828.66;;;25.73;30.00
10606;BME280;5350;42.698;23.148;2023-05-02T12:53:14;93827.72;;;26.24;29.82
10606;BME280;5350;42.698;23.148;2023-05-02T12:55:41;93832.59;;;25.93;28.85
10606;BME280;5350;42.698;23.148;2023-05-02T12:58:09;93825.81;;;25.45;29.40
10606;BME280;5350;42.698;23.148;2023-05-02T13:00:40;93820.78;;;25.36;29.39
10606;BME280;5350;42.698;23.148;2023-05-02T13:03:08;93819.75;;;25.55;29.81
10606;BME280;5350;42.698;23.148;2023-05-02T13:05:35;93822.94;;;25.82;29.20
10606;BME280;5350;42.698;23.148;2023-05-02T13:08:02;93819.41;;;25.64;29.22
10606;BME280;5350;42.698;23.148;2023-05-02T13:10:30;93817.09;;;25.69;29.24
10606;BME280;5350;42.698;23.148;2023-05-02T13:12:57;93814.41;;;25.73;28.74